This is the latest recevied weather packets stored in our database for station/object MB7UKB-10. If no packets are shown the sender has not sent any weather packets the latest 10 day(s).
| Time | Temp. | Humidity | Pressure | Rain* | Wind** | Luminosity | Snow |
|---|---|---|---|---|---|---|---|
| 1787993126 | 17.22° C | 90% | 1005.6 hPa | 0.76 mm | - | - | - |
| 1787991326 | 16.67° C | 90% | 1006 hPa | 1.02 mm | - | - | - |
| 1787989526 | 16.67° C | 88% | 1006.1 hPa | 0.76 mm | - | - | - |
| 1787987726 | 17.22° C | 87% | 1006.2 hPa | 0.25 mm | - | - | - |
| 1787985926 | 17.22° C | 84% | 1006.4 hPa | 0 mm | - | - | - |
| 1787982325 | 16.67° C | 86% | 1006.5 hPa | 0 mm | - | - | - |
| 1787980526 | 16.67° C | 87% | 1006.9 hPa | 0 mm | - | - | - |
| 1787978725 | 17.22° C | 87% | 1007.1 hPa | 0 mm | - | - | - |
| 1787976926 | 17.22° C | 85% | 1007.1 hPa | 0 mm | - | - | - |
| 1787975126 | 17.22° C | 86% | 1007.3 hPa | 0 mm | - | - | - |
| 1787969726 | 17.22° C | 85% | 1007.8 hPa | 0 mm | - | - | - |
| 1787967926 | 17.78° C | 85% | 1007.8 hPa | 0 mm | - | - | - |
| 1787966125 | 17.78° C | 85% | 1007.9 hPa | 0 mm | - | - | - |
| 1787964326 | 17.22° C | 86% | 1007.9 hPa | 0 mm | - | - | - |
| 1787962525 | 16.67° C | 88% | 1008 hPa | 0 mm | - | - | - |
| 1787960726 | 16.67° C | 86% | 1008.3 hPa | 0 mm | - | - | - |
| 1787958926 | 17.22° C | 86% | 1008.4 hPa | 0 mm | - | - | - |
| 1787957126 | 17.22° C | 86% | 1008.2 hPa | 0 mm | - | - | - |
| 1787955326 | 17.22° C | 85% | 1008.3 hPa | 0 mm | - | - | - |
| 1787953526 | 17.78° C | 84% | 1008.2 hPa | 0 mm | - | - | - |
| 1787951726 | 17.78° C | 83% | 1008.1 hPa | 0 mm | - | - | - |
| 1787949925 | 17.78° C | 83% | 1008.1 hPa | 0 mm | - | - | - |
| 1787948126 | 17.78° C | 82% | 1007.9 hPa | 0 mm | - | - | - |
| 1787944527 | 17.78° C | 86% | 1007.5 hPa | 0.51 mm | - | - | - |
| 1787942726 | 17.78° C | 86% | 1007.5 hPa | 0.25 mm | - | - | - |
* Rain latest hour (hover to see other rain measurements)
** Current wind speed in m/s (hover to see current wind gust speed)